sensor_id;sensor_type;location;lat;lon;timestamp;temperature;humidity
9919;DHT22;4998;51.024;13.828;2024-02-15T00:01:14;13.20;86.00
9919;DHT22;4998;51.024;13.828;2024-02-15T00:03:41;13.20;86.20
9919;DHT22;4998;51.024;13.828;2024-02-15T00:06:08;13.20;86.10
9919;DHT22;4998;51.024;13.828;2024-02-15T00:08:35;13.20;86.10
9919;DHT22;4998;51.024;13.828;2024-02-15T00:11:02;13.20;86.30
9919;DHT22;4998;51.024;13.828;2024-02-15T00:13:29;13.10;86.30
9919;DHT22;4998;51.024;13.828;2024-02-15T00:15:59;13.10;86.40
9919;DHT22;4998;51.024;13.828;2024-02-15T00:18:28;13.10;86.40
9919;DHT22;4998;51.024;13.828;2024-02-15T00:20:55;13.10;86.60
9919;DHT22;4998;51.024;13.828;2024-02-15T00:23:22;13.10;86.60
9919;DHT22;4998;51.024;13.828;2024-02-15T00:25:49;13.10;86.80
9919;DHT22;4998;51.024;13.828;2024-02-15T00:28:16;13.00;86.80
9919;DHT22;4998;51.024;13.828;2024-02-15T00:30:43;13.00;86.90
9919;DHT22;4998;51.024;13.828;2024-02-15T00:33:10;13.00;87.10
9919;DHT22;4998;51.024;13.828;2024-02-15T00:35:41;12.90;87.30
9919;DHT22;4998;51.024;13.828;2024-02-15T00:38:08;12.90;87.50
9919;DHT22;4998;51.024;13.828;2024-02-15T00:40:36;12.90;87.50
9919;DHT22;4998;51.024;13.828;2024-02-15T00:43:03;13.00;87.70
9919;DHT22;4998;51.024;13.828;2024-02-15T00:45:30;12.90;87.80
9919;DHT22;4998;51.024;13.828;2024-02-15T00:47:57;12.90;88.00
9919;DHT22;4998;51.024;13.828;2024-02-15T00:50:24;12.90;88.10
9919;DHT22;4998;51.024;13.828;2024-02-15T00:52:53;12.90;88.10
9919;DHT22;4998;51.024;13.828;2024-02-15T00:55:20;12.90;88.40
9919;DHT22;4998;51.024;13.828;2024-02-15T00:57:47;12.90;88.40
9919;DHT22;4998;51.024;13.828;2024-02-15T01:00:15;12.80;88.40
9919;DHT22;4998;51.024;13.828;2024-02-15T01:02:42;12.90;88.60
9919;DHT22;4998;51.024;13.828;2024-02-15T01:05:09;12.80;88.60
9919;DHT22;4998;51.024;13.828;2024-02-15T01:07:37;12.80;88.70
9919;DHT22;4998;51.024;13.828;2024-02-15T01:10:07;12.80;88.80
9919;DHT22;4998;51.024;13.828;2024-02-15T01:12:34;12.80;89.10
9919;DHT22;4998;51.024;13.828;2024-02-15T01:15:01;12.80;89.10
9919;DHT22;4998;51.024;13.828;2024-02-15T01:17:28;12.80;89.10
9919;DHT22;4998;51.024;13.828;2024-02-15T01:19:55;12.80;89.40
9919;DHT22;4998;51.024;13.828;2024-02-15T01:22:22;12.80;89.50
9919;DHT22;4998;51.024;13.828;2024-02-15T01:24:50;12.80;89.70
9919;DHT22;4998;51.024;13.828;2024-02-15T01:27:19;12.80;89.70
9919;DHT22;4998;51.024;13.828;2024-02-15T01:29:46;12.80;89.90
9919;DHT22;4998;51.024;13.828;2024-02-15T01:32:13;12.80;89.90
9919;DHT22;4998;51.024;13.828;2024-02-15T01:34:41;12.80;89.90
9919;DHT22;4998;51.024;13.828;2024-02-15T01:37:08;12.80;90.00
9919;DHT22;4998;51.024;13.828;2024-02-15T01:39:36;12.80;89.90
9919;DHT22;4998;51.024;13.828;2024-02-15T01:42:03;12.80;90.00
9919;DHT22;4998;51.024;13.828;2024-02-15T01:44:32;12.80;90.10
9919;DHT22;4998;51.024;13.828;2024-02-15T01:47:00;12.90;90.20
9919;DHT22;4998;51.024;13.828;2024-02-15T01:49:27;12.90;90.20
9919;DHT22;4998;51.024;13.828;2024-02-15T01:51:56;12.90;90.20
9919;DHT22;4998;51.024;13.828;2024-02-15T01:54:24;12.90;90.30
9919;DHT22;4998;51.024;13.828;2024-02-15T01:56:52;12.90;90.30
9919;DHT22;4998;51.024;13.828;2024-02-15T01:59:22;13.00;90.40
9919;DHT22;4998;51.024;13.828;2024-02-15T02:01:51;13.00;90.40
9919;DHT22;4998;51.024;13.828;2024-02-15T02:04:18;13.00;90.40
9919;DHT22;4998;51.024;13.828;2024-02-15T02:06:46;13.10;90.40
9919;DHT22;4998;51.024;13.828;2024-02-15T02:09:13;13.00;90.40
9919;DHT22;4998;51.024;13.828;2024-02-15T02:11:41;13.10;90.50
9919;DHT22;4998;51.024;13.828;2024-02-15T02:14:08;13.10;90.50
9919;DHT22;4998;51.024;13.828;2024-02-15T02:16:37;13.10;90.50
9919;DHT22;4998;51.024;13.828;2024-02-15T02:19:06;13.10;90.50
9919;DHT22;4998;51.024;13.828;2024-02-15T02:21:35;13.20;90.60
9919;DHT22;4998;51.024;13.828;2024-02-15T02:24:12;13.20;90.60
9919;DHT22;4998;51.024;13.828;2024-02-15T02:26:41;13.10;90.60
9919;DHT22;4998;51.024;13.828;2024-02-15T02:29:09;13.20;90.70
9919;DHT22;4998;51.024;13.828;2024-02-15T02:31:36;13.20;90.60
9919;DHT22;4998;51.024;13.828;2024-02-15T02:34:03;13.20;90.70
9919;DHT22;4998;51.024;13.828;2024-02-15T02:36:32;13.20;90.70
9919;DHT22;4998;51.024;13.828;2024-02-15T02:38:59;13.20;90.80
9919;DHT22;4998;51.024;13.828;2024-02-15T02:41:27;13.20;90.80
9919;DHT22;4998;51.024;13.828;2024-02-15T02:43:56;13.20;90.80
9919;DHT22;4998;51.024;13.828;2024-02-15T02:46:23;13.20;90.90
9919;DHT22;4998;51.024;13.828;2024-02-15T02:48:51;13.30;90.90
9919;DHT22;4998;51.024;13.828;2024-02-15T02:51:18;13.30;91.00
9919;DHT22;4998;51.024;13.828;2024-02-15T02:53:45;13.20;91.00
9919;DHT22;4998;51.024;13.828;2024-02-15T02:56:12;13.30;91.00
9919;DHT22;4998;51.024;13.828;2024-02-15T02:58:39;13.30;91.00
9919;DHT22;4998;51.024;13.828;2024-02-15T03:01:09;13.30;91.00
9919;DHT22;4998;51.024;13.828;2024-02-15T03:03:37;13.30;91.10
9919;DHT22;4998;51.024;13.828;2024-02-15T03:06:05;13.30;91.10
9919;DHT22;4998;51.024;13.828;2024-02-15T03:08:32;13.30;91.10
9919;DHT22;4998;51.024;13.828;2024-02-15T03:10:59;13.40;91.10
9919;DHT22;4998;51.024;13.828;2024-02-15T03:13:27;13.30;91.10
9919;DHT22;4998;51.024;13.828;2024-02-15T03:15:54;13.40;91.10
9919;DHT22;4998;51.024;13.828;2024-02-15T03:18:22;13.30;91.10
9919;DHT22;4998;51.024;13.828;2024-02-15T03:20:50;13.30;91.20
9919;DHT22;4998;51.024;13.828;2024-02-15T03:23:17;13.30;91.20
9919;DHT22;4998;51.024;13.828;2024-02-15T03:25:44;13.30;91.20
9919;DHT22;4998;51.024;13.828;2024-02-15T03:28:11;13.30;91.20
9919;DHT22;4998;51.024;13.828;2024-02-15T03:30:38;13.30;91.20
9919;DHT22;4998;51.024;13.828;2024-02-15T03:33:05;13.30;91.20
9919;DHT22;4998;51.024;13.828;2024-02-15T03:35:34;13.30;91.30
9919;DHT22;4998;51.024;13.828;2024-02-15T03:38:01;13.30;91.40
9919;DHT22;4998;51.024;13.828;2024-02-15T03:40:28;13.30;91.40
9919;DHT22;4998;51.024;13.828;2024-02-15T03:42:58;13.30;91.40
9919;DHT22;4998;51.024;13.828;2024-02-15T03:45:25;13.30;91.50
9919;DHT22;4998;51.024;13.828;2024-02-15T03:47:52;13.30;91.50
9919;DHT22;4998;51.024;13.828;2024-02-15T03:50:19;13.30;91.50
9919;DHT22;4998;51.024;13.828;2024-02-15T03:52:49;13.30;91.50
9919;DHT22;4998;51.024;13.828;2024-02-15T03:55:17;13.30;91.50
9919;DHT22;4998;51.024;13.828;2024-02-15T03:57:44;13.30;91.50
9919;DHT22;4998;51.024;13.828;2024-02-15T04:00:12;13.30;91.50
9919;DHT22;4998;51.024;13.828;2024-02-15T04:02:40;13.30;91.60
9919;DHT22;4998;51.024;13.828;2024-02-15T04:05:07;13.30;91.60
9919;DHT22;4998;51.024;13.828;2024-02-15T04:07:37;13.30;91.60
9919;DHT22;4998;51.024;13.828;2024-02-15T04:10:07;13.30;91.70
9919;DHT22;4998;51.024;13.828;2024-02-15T04:12:35;13.30;91.80
9919;DHT22;4998;51.024;13.828;2024-02-15T04:15:02;13.30;91.80
9919;DHT22;4998;51.024;13.828;2024-02-15T04:17:32;13.30;91.80
9919;DHT22;4998;51.024;13.828;2024-02-15T04:20:00;13.30;91.80
9919;DHT22;4998;51.024;13.828;2024-02-15T04:22:29;13.40;91.90
9919;DHT22;4998;51.024;13.828;2024-02-15T04:24:57;13.30;92.00
9919;DHT22;4998;51.024;13.828;2024-02-15T04:27:26;13.40;91.90
9919;DHT22;4998;51.024;13.828;2024-02-15T04:29:53;13.40;91.90
9919;DHT22;4998;51.024;13.828;2024-02-15T04:32:21;13.40;91.80
9919;DHT22;4998;51.024;13.828;2024-02-15T04:34:48;13.50;91.90
9919;DHT22;4998;51.024;13.828;2024-02-15T04:37:15;13.40;91.90
9919;DHT22;4998;51.024;13.828;2024-02-15T04:39:43;13.40;91.90
9919;DHT22;4998;51.024;13.828;2024-02-15T04:42:11;13.40;92.00
9919;DHT22;4998;51.024;13.828;2024-02-15T04:44:40;13.40;92.00
9919;DHT22;4998;51.024;13.828;2024-02-15T04:47:07;13.40;92.00
9919;DHT22;4998;51.024;13.828;2024-02-15T04:49:34;13.30;92.00
9919;DHT22;4998;51.024;13.828;2024-02-15T04:52:04;13.40;92.10
9919;DHT22;4998;51.024;13.828;2024-02-15T04:54:32;13.40;92.10
9919;DHT22;4998;51.024;13.828;2024-02-15T04:56:59;13.40;92.20
9919;DHT22;4998;51.024;13.828;2024-02-15T04:59:26;13.30;92.10
9919;DHT22;4998;51.024;13.828;2024-02-15T05:01:57;13.40;92.20
9919;DHT22;4998;51.024;13.828;2024-02-15T05:04:25;13.40;92.30
9919;DHT22;4998;51.024;13.828;2024-02-15T05:06:52;13.40;92.30
9919;DHT22;4998;51.024;13.828;2024-02-15T05:09:19;13.40;92.30
9919;DHT22;4998;51.024;13.828;2024-02-15T05:11:48;13.40;92.30
9919;DHT22;4998;51.024;13.828;2024-02-15T05:14:16;13.40;92.30
9919;DHT22;4998;51.024;13.828;2024-02-15T05:16:45;13.40;92.30
9919;DHT22;4998;51.024;13.828;2024-02-15T05:19:15;13.40;92.30
9919;DHT22;4998;51.024;13.828;2024-02-15T05:21:42;13.50;92.40
9919;DHT22;4998;51.024;13.828;2024-02-15T05:24:12;13.50;92.40
9919;DHT22;4998;51.024;13.828;2024-02-15T05:26:40;13.40;92.40
9919;DHT22;4998;51.024;13.828;2024-02-15T05:29:08;13.50;92.40
9919;DHT22;4998;51.024;13.828;2024-02-15T05:31:36;13.50;92.50
9919;DHT22;4998;51.024;13.828;2024-02-15T05:34:06;13.50;92.50
9919;DHT22;4998;51.024;13.828;2024-02-15T05:36:38;13.50;92.50
9919;DHT22;4998;51.024;13.828;2024-02-15T05:39:05;13.50;92.50
9919;DHT22;4998;51.024;13.828;2024-02-15T05:41:33;13.50;92.40
9919;DHT22;4998;51.024;13.828;2024-02-15T05:44:00;13.50;92.50
9919;DHT22;4998;51.024;13.828;2024-02-15T05:46:27;13.50;92.50
9919;DHT22;4998;51.024;13.828;2024-02-15T05:48:54;13.60;92.60
9919;DHT22;4998;51.024;13.828;2024-02-15T05:51:22;13.60;92.60
9919;DHT22;4998;51.024;13.828;2024-02-15T05:53:51;13.60;92.50
9919;DHT22;4998;51.024;13.828;2024-02-15T05:56:24;13.60;92.60
9919;DHT22;4998;51.024;13.828;2024-02-15T05:58:51;13.60;92.60
9919;DHT22;4998;51.024;13.828;2024-02-15T06:01:18;13.60;92.90
9919;DHT22;4998;51.024;13.828;2024-02-15T06:03:46;13.60;92.70
9919;DHT22;4998;51.024;13.828;2024-02-15T06:06:13;13.70;92.70
9919;DHT22;4998;51.024;13.828;2024-02-15T06:08:40;13.70;92.80
9919;DHT22;4998;51.024;13.828;2024-02-15T06:11:09;13.70;92.70
9919;DHT22;4998;51.024;13.828;2024-02-15T06:13:36;13.70;92.80
9919;DHT22;4998;51.024;13.828;2024-02-15T06:16:03;13.70;92.80
9919;DHT22;4998;51.024;13.828;2024-02-15T06:18:35;13.70;92.90
9919;DHT22;4998;51.024;13.828;2024-02-15T06:21:03;13.70;92.90
9919;DHT22;4998;51.024;13.828;2024-02-15T06:23:31;13.70;92.90
9919;DHT22;4998;51.024;13.828;2024-02-15T06:25:59;13.80;93.00
9919;DHT22;4998;51.024;13.828;2024-02-15T06:28:29;13.70;93.00
9919;DHT22;4998;51.024;13.828;2024-02-15T06:31:14;13.80;93.10
9919;DHT22;4998;51.024;13.828;2024-02-15T06:33:59;13.80;93.00
9919;DHT22;4998;51.024;13.828;2024-02-15T06:36:46;13.70;93.00
9919;DHT22;4998;51.024;13.828;2024-02-15T06:39:30;13.80;93.20
9919;DHT22;4998;51.024;13.828;2024-02-15T06:42:12;13.80;93.10
9919;DHT22;4998;51.024;13.828;2024-02-15T06:44:43;13.80;93.20
9919;DHT22;4998;51.024;13.828;2024-02-15T06:47:10;13.80;93.30
9919;DHT22;4998;51.024;13.828;2024-02-15T06:49:38;13.80;93.30
9919;DHT22;4998;51.024;13.828;2024-02-15T06:52:06;13.80;93.30
9919;DHT22;4998;51.024;13.828;2024-02-15T06:54:34;13.80;93.40
9919;DHT22;4998;51.024;13.828;2024-02-15T06:57:02;13.80;93.40
9919;DHT22;4998;51.024;13.828;2024-02-15T06:59:31;13.80;93.50
9919;DHT22;4998;51.024;13.828;2024-02-15T07:02:00;13.80;93.50
9919;DHT22;4998;51.024;13.828;2024-02-15T07:04:30;13.80;93.60
9919;DHT22;4998;51.024;13.828;2024-02-15T07:06:58;13.80;93.60
9919;DHT22;4998;51.024;13.828;2024-02-15T07:09:25;13.80;93.70
9919;DHT22;4998;51.024;13.828;2024-02-15T07:11:53;13.80;93.80
9919;DHT22;4998;51.024;13.828;2024-02-15T07:14:20;13.80;93.80
9919;DHT22;4998;51.024;13.828;2024-02-15T07:16:48;13.90;93.90
9919;DHT22;4998;51.024;13.828;2024-02-15T07:19:17;13.90;94.00
9919;DHT22;4998;51.024;13.828;2024-02-15T07:21:45;13.90;94.00
9919;DHT22;4998;51.024;13.828;2024-02-15T07:24:12;13.80;94.00
9919;DHT22;4998;51.024;13.828;2024-02-15T07:26:40;13.90;94.10
9919;DHT22;4998;51.024;13.828;2024-02-15T07:29:07;13.90;94.10
9919;DHT22;4998;51.024;13.828;2024-02-15T07:31:35;13.90;94.10
9919;DHT22;4998;51.024;13.828;2024-02-15T07:34:02;14.00;94.20
9919;DHT22;4998;51.024;13.828;2024-02-15T07:36:32;14.00;94.20
9919;DHT22;4998;51.024;13.828;2024-02-15T07:38:59;14.00;94.20
9919;DHT22;4998;51.024;13.828;2024-02-15T07:41:27;14.00;94.20
9919;DHT22;4998;51.024;13.828;2024-02-15T07:43:54;14.00;94.20
9919;DHT22;4998;51.024;13.828;2024-02-15T07:46:23;14.10;94.30
9919;DHT22;4998;51.024;13.828;2024-02-15T07:48:50;14.00;94.30
9919;DHT22;4998;51.024;13.828;2024-02-15T07:51:18;14.10;94.70
9919;DHT22;4998;51.024;13.828;2024-02-15T07:53:47;14.10;94.40
9919;DHT22;4998;51.024;13.828;2024-02-15T07:56:16;14.10;94.50
9919;DHT22;4998;51.024;13.828;2024-02-15T07:58:44;14.10;94.50
9919;DHT22;4998;51.024;13.828;2024-02-15T08:01:12;14.20;94.50
9919;DHT22;4998;51.024;13.828;2024-02-15T08:03:40;14.20;94.50
9919;DHT22;4998;51.024;13.828;2024-02-15T08:06:10;14.20;94.50
9919;DHT22;4998;51.024;13.828;2024-02-15T08:08:38;14.20;94.50
9919;DHT22;4998;51.024;13.828;2024-02-15T08:11:08;14.20;94.60
9919;DHT22;4998;51.024;13.828;2024-02-15T08:13:43;14.30;94.70
9919;DHT22;4998;51.024;13.828;2024-02-15T08:16:10;14.30;94.70
9919;DHT22;4998;51.024;13.828;2024-02-15T08:18:38;14.30;94.80
9919;DHT22;4998;51.024;13.828;2024-02-15T08:21:05;14.40;94.80
9919;DHT22;4998;51.024;13.828;2024-02-15T08:23:32;14.40;94.90
9919;DHT22;4998;51.024;13.828;2024-02-15T08:26:00;14.40;94.90
9919;DHT22;4998;51.024;13.828;2024-02-15T08:28:28;14.50;95.00
9919;DHT22;4998;51.024;13.828;2024-02-15T08:30:55;14.50;95.00
9919;DHT22;4998;51.024;13.828;2024-02-15T08:33:23;14.60;95.00
9919;DHT22;4998;51.024;13.828;2024-02-15T08:35:50;14.70;95.00
9919;DHT22;4998;51.024;13.828;2024-02-15T08:38:21;14.70;95.00
9919;DHT22;4998;51.024;13.828;2024-02-15T08:40:48;14.80;95.00
9919;DHT22;4998;51.024;13.828;2024-02-15T08:43:15;14.80;94.90
9919;DHT22;4998;51.024;13.828;2024-02-15T08:45:43;14.90;94.90
9919;DHT22;4998;51.024;13.828;2024-02-15T08:48:11;14.90;94.90
9919;DHT22;4998;51.024;13.828;2024-02-15T08:50:38;15.00;94.90
9919;DHT22;4998;51.024;13.828;2024-02-15T08:53:07;15.00;94.80
9919;DHT22;4998;51.024;13.828;2024-02-15T08:55:34;15.10;94.70
9919;DHT22;4998;51.024;13.828;2024-02-15T08:58:02;15.10;94.70
9919;DHT22;4998;51.024;13.828;2024-02-15T09:00:30;15.10;94.60
9919;DHT22;4998;51.024;13.828;2024-02-15T09:02:58;15.20;94.70
9919;DHT22;4998;51.024;13.828;2024-02-15T09:05:25;15.20;94.70
9919;DHT22;4998;51.024;13.828;2024-02-15T09:07:53;15.30;94.80
9919;DHT22;4998;51.024;13.828;2024-02-15T09:10:20;15.30;94.80
9919;DHT22;4998;51.024;13.828;2024-02-15T09:12:49;15.40;94.90
9919;DHT22;4998;51.024;13.828;2024-02-15T09:15:16;15.40;94.90
9919;DHT22;4998;51.024;13.828;2024-02-15T09:17:44;15.50;94.80
9919;DHT22;4998;51.024;13.828;2024-02-15T09:20:13;15.50;94.80
9919;DHT22;4998;51.024;13.828;2024-02-15T09:22:48;15.60;94.80
9919;DHT22;4998;51.024;13.828;2024-02-15T09:25:15;15.70;94.70
9919;DHT22;4998;51.024;13.828;2024-02-15T09:27:43;15.70;94.60
9919;DHT22;4998;51.024;13.828;2024-02-15T09:30:12;15.80;94.50
9919;DHT22;4998;51.024;13.828;2024-02-15T09:32:39;15.80;94.50
9919;DHT22;4998;51.024;13.828;2024-02-15T09:35:08;15.80;94.40
9919;DHT22;4998;51.024;13.828;2024-02-15T09:37:37;15.90;94.30
9919;DHT22;4998;51.024;13.828;2024-02-15T09:40:08;15.90;94.20
9919;DHT22;4998;51.024;13.828;2024-02-15T09:42:36;15.90;94.10
9919;DHT22;4998;51.024;13.828;2024-02-15T09:45:05;16.00;94.10
9919;DHT22;4998;51.024;13.828;2024-02-15T09:47:35;16.00;94.00
9919;DHT22;4998;51.024;13.828;2024-02-15T09:50:04;16.00;94.00
9919;DHT22;4998;51.024;13.828;2024-02-15T09:52:33;16.00;94.00
9919;DHT22;4998;51.024;13.828;2024-02-15T09:55:05;16.00;94.00
9919;DHT22;4998;51.024;13.828;2024-02-15T09:57:36;16.00;94.10
9919;DHT22;4998;51.024;13.828;2024-02-15T10:00:03;16.00;94.00
9919;DHT22;4998;51.024;13.828;2024-02-15T10:02:34;16.10;94.00
9919;DHT22;4998;51.024;13.828;2024-02-15T10:05:04;16.10;93.90
9919;DHT22;4998;51.024;13.828;2024-02-15T10:07:31;16.10;93.80
9919;DHT22;4998;51.024;13.828;2024-02-15T10:10:16;16.10;93.80
9919;DHT22;4998;51.024;13.828;2024-02-15T10:12:44;16.10;93.70
9919;DHT22;4998;51.024;13.828;2024-02-15T10:15:27;16.10;93.60
9919;DHT22;4998;51.024;13.828;2024-02-15T10:17:56;16.10;93.60
9919;DHT22;4998;51.024;13.828;2024-02-15T10:20:24;16.10;93.50
9919;DHT22;4998;51.024;13.828;2024-02-15T10:22:52;16.10;93.40
9919;DHT22;4998;51.024;13.828;2024-02-15T10:25:22;16.10;93.30
9919;DHT22;4998;51.024;13.828;2024-02-15T10:27:49;16.10;93.30
9919;DHT22;4998;51.024;13.828;2024-02-15T10:30:18;16.10;93.30
9919;DHT22;4998;51.024;13.828;2024-02-15T10:32:45;16.10;93.40
9919;DHT22;4998;51.024;13.828;2024-02-15T10:35:20;16.10;93.50
9919;DHT22;4998;51.024;13.828;2024-02-15T10:37:48;16.10;93.50
9919;DHT22;4998;51.024;13.828;2024-02-15T10:40:21;16.10;93.50
9919;DHT22;4998;51.024;13.828;2024-02-15T10:42:51;16.10;93.60
9919;DHT22;4998;51.024;13.828;2024-02-15T10:45:18;16.20;93.70
9919;DHT22;4998;51.024;13.828;2024-02-15T10:47:46;16.20;93.70
9919;DHT22;4998;51.024;13.828;2024-02-15T10:50:13;16.30;93.80
9919;DHT22;4998;51.024;13.828;2024-02-15T10:52:48;16.30;93.80
9919;DHT22;4998;51.024;13.828;2024-02-15T10:55:40;16.30;93.80
9919;DHT22;4998;51.024;13.828;2024-02-15T10:58:13;16.40;93.70
9919;DHT22;4998;51.024;13.828;2024-02-15T11:00:45;16.50;93.80
9919;DHT22;4998;51.024;13.828;2024-02-15T11:03:18;16.50;93.80
9919;DHT22;4998;51.024;13.828;2024-02-15T11:05:47;16.60;93.80
9919;DHT22;4998;51.024;13.828;2024-02-15T11:08:15;16.70;93.80
9919;DHT22;4998;51.024;13.828;2024-02-15T11:10:44;16.70;93.70
9919;DHT22;4998;51.024;13.828;2024-02-15T11:13:13;16.80;93.70
9919;DHT22;4998;51.024;13.828;2024-02-15T11:15:41;16.80;93.60
9919;DHT22;4998;51.024;13.828;2024-02-15T11:18:11;16.90;93.60
9919;DHT22;4998;51.024;13.828;2024-02-15T11:20:48;17.00;93.50
9919;DHT22;4998;51.024;13.828;2024-02-15T11:23:26;17.00;93.40
9919;DHT22;4998;51.024;13.828;2024-02-15T11:25:55;17.10;93.40
9919;DHT22;4998;51.024;13.828;2024-02-15T11:28:39;17.10;93.30
9919;DHT22;4998;51.024;13.828;2024-02-15T11:31:10;17.10;93.30
9919;DHT22;4998;51.024;13.828;2024-02-15T11:33:39;17.10;93.20
9919;DHT22;4998;51.024;13.828;2024-02-15T11:36:07;17.20;93.20
9919;DHT22;4998;51.024;13.828;2024-02-15T11:38:34;17.20;93.10
9919;DHT22;4998;51.024;13.828;2024-02-15T11:41:07;17.20;93.00
9919;DHT22;4998;51.024;13.828;2024-02-15T11:43:53;17.20;93.00
9919;DHT22;4998;51.024;13.828;2024-02-15T11:46:24;17.30;93.00
9919;DHT22;4998;51.024;13.828;2024-02-15T11:48:55;17.30;93.00
9919;DHT22;4998;51.024;13.828;2024-02-15T11:51:26;17.30;93.00
9919;DHT22;4998;51.024;13.828;2024-02-15T11:54:02;17.30;93.00
9919;DHT22;4998;51.024;13.828;2024-02-15T11:56:48;17.30;92.90
9919;DHT22;4998;51.024;13.828;2024-02-15T11:59:17;17.30;92.80
9919;DHT22;4998;51.024;13.828;2024-02-15T12:01:55;17.30;92.80
9919;DHT22;4998;51.024;13.828;2024-02-15T12:04:40;17.40;92.80
9919;DHT22;4998;51.024;13.828;2024-02-15T12:07:24;17.30;92.80
9919;DHT22;4998;51.024;13.828;2024-02-15T12:10:15;17.30;92.80
9919;DHT22;4998;51.024;13.828;2024-02-15T12:13:01;17.40;92.90
9919;DHT22;4998;51.024;13.828;2024-02-15T12:15:59;17.40;92.90
9919;DHT22;4998;51.024;13.828;2024-02-15T12:18:44;17.50;92.90
9919;DHT22;4998;51.024;13.828;2024-02-15T12:21:19;17.50;92.90
9919;DHT22;4998;51.024;13.828;2024-02-15T12:23:49;17.50;92.90
9919;DHT22;4998;51.024;13.828;2024-02-15T12:26:19;17.60;92.90
9919;DHT22;4998;51.024;13.828;2024-02-15T12:28:51;17.60;92.80
9919;DHT22;4998;51.024;13.828;2024-02-15T12:31:20;17.60;92.80
9919;DHT22;4998;51.024;13.828;2024-02-15T12:34:00;17.70;92.80
9919;DHT22;4998;51.024;13.828;2024-02-15T12:36:27;17.70;92.70
9919;DHT22;4998;51.024;13.828;2024-02-15T12:39:01;17.70;92.70
9919;DHT22;4998;51.024;13.828;2024-02-15T12:41:29;17.70;92.50
9919;DHT22;4998;51.024;13.828;2024-02-15T12:43:58;17.70;92.50
9919;DHT22;4998;51.024;13.828;2024-02-15T12:46:27;17.70;92.40
9919;DHT22;4998;51.024;13.828;2024-02-15T12:49:10;17.70;92.50
9919;DHT22;4998;51.024;13.828;2024-02-15T12:51:39;17.70;92.50
9919;DHT22;4998;51.024;13.828;2024-02-15T12:54:10;17.70;92.50
9919;DHT22;4998;51.024;13.828;2024-02-15T12:56:40;17.70;92.50
9919;DHT22;4998;51.024;13.828;2024-02-15T12:59:08;17.70;92.50
9919;DHT22;4998;51.024;13.828;2024-02-15T13:01:35;17.80;92.50
9919;DHT22;4998;51.024;13.828;2024-02-15T13:04:02;17.80;92.40
9919;DHT22;4998;51.024;13.828;2024-02-15T13:06:31;17.70;92.30
9919;DHT22;4998;51.024;13.828;2024-02-15T13:09:01;17.80;92.40
9919;DHT22;4998;51.024;13.828;2024-02-15T13:11:29;17.80;92.30
9919;DHT22;4998;51.024;13.828;2024-02-15T13:13:56;17.80;92.30
9919;DHT22;4998;51.024;13.828;2024-02-15T13:16:25;17.80;92.30
9919;DHT22;4998;51.024;13.828;2024-02-15T13:18:54;17.80;92.30
9919;DHT22;4998;51.024;13.828;2024-02-15T13:21:20;17.80;92.30
9919;DHT22;4998;51.024;13.828;2024-02-15T13:23:49;17.80;92.30
9919;DHT22;4998;51.024;13.828;2024-02-15T13:26:16;17.80;92.30
9919;DHT22;4998;51.024;13.828;2024-02-15T13:28:45;17.90;92.30
9919;DHT22;4998;51.024;13.828;2024-02-15T13:31:12;17.90;92.20
9919;DHT22;4998;51.024;13.828;2024-02-15T13:33:41;17.90;92.30
9919;DHT22;4998;51.024;13.828;2024-02-15T13:36:08;17.90;92.20
9919;DHT22;4998;51.024;13.828;2024-02-15T13:38:36;17.90;92.30
9919;DHT22;4998;51.024;13.828;2024-02-15T13:41:03;17.90;92.20
9919;DHT22;4998;51.024;13.828;2024-02-15T13:43:31;18.00;92.20
9919;DHT22;4998;51.024;13.828;2024-02-15T13:45:59;18.00;92.20
9919;DHT22;4998;51.024;13.828;2024-02-15T13:48:29;18.00;92.20
9919;DHT22;4998;51.024;13.828;2024-02-15T13:50:58;18.10;92.20
9919;DHT22;4998;51.024;13.828;2024-02-15T13:53:25;18.10;92.50
9919;DHT22;4998;51.024;13.828;2024-02-15T13:55:54;18.20;92.10
9919;DHT22;4998;51.024;13.828;2024-02-15T13:58:21;18.20;92.00
9919;DHT22;4998;51.024;13.828;2024-02-15T14:00:48;18.30;92.00
9919;DHT22;4998;51.024;13.828;2024-02-15T14:03:16;18.30;92.00
9919;DHT22;4998;51.024;13.828;2024-02-15T14:05:44;18.40;92.10
9919;DHT22;4998;51.024;13.828;2024-02-15T14:08:14;18.40;92.00
9919;DHT22;4998;51.024;13.828;2024-02-15T14:10:42;18.50;91.90
9919;DHT22;4998;51.024;13.828;2024-02-15T14:13:09;18.50;91.80
9919;DHT22;4998;51.024;13.828;2024-02-15T14:15:37;18.60;91.70
9919;DHT22;4998;51.024;13.828;2024-02-15T14:18:04;18.60;91.60
9919;DHT22;4998;51.024;13.828;2024-02-15T14:20:31;18.70;91.60
9919;DHT22;4998;51.024;13.828;2024-02-15T14:22:59;18.80;91.60
9919;DHT22;4998;51.024;13.828;2024-02-15T14:25:32;18.80;91.60
9919;DHT22;4998;51.024;13.828;2024-02-15T14:28:01;18.90;91.50
9919;DHT22;4998;51.024;13.828;2024-02-15T14:30:29;18.90;91.40
9919;DHT22;4998;51.024;13.828;2024-02-15T14:33:13;18.90;91.30
9919;DHT22;4998;51.024;13.828;2024-02-15T14:35:41;18.90;91.10
9919;DHT22;4998;51.024;13.828;2024-02-15T14:38:10;18.90;91.00
9919;DHT22;4998;51.024;13.828;2024-02-15T14:40:41;18.90;90.90
9919;DHT22;4998;51.024;13.828;2024-02-15T14:43:08;18.90;90.70
9919;DHT22;4998;51.024;13.828;2024-02-15T14:45:38;18.90;90.60
9919;DHT22;4998;51.024;13.828;2024-02-15T14:48:07;18.90;90.60
9919;DHT22;4998;51.024;13.828;2024-02-15T14:50:35;18.90;90.50
9919;DHT22;4998;51.024;13.828;2024-02-15T14:53:02;18.90;90.30
9919;DHT22;4998;51.024;13.828;2024-02-15T14:55:30;18.90;90.20
9919;DHT22;4998;51.024;13.828;2024-02-15T14:57:58;18.80;90.10
9919;DHT22;4998;51.024;13.828;2024-02-15T15:00:25;18.80;90.10
9919;DHT22;4998;51.024;13.828;2024-02-15T15:02:53;18.80;90.10
9919;DHT22;4998;51.024;13.828;2024-02-15T15:05:22;18.70;90.10
9919;DHT22;4998;51.024;13.828;2024-02-15T15:08:06;18.70;90.10
9919;DHT22;4998;51.024;13.828;2024-02-15T15:10:51;18.70;90.00
9919;DHT22;4998;51.024;13.828;2024-02-15T15:13:37;18.60;89.90
9919;DHT22;4998;51.024;13.828;2024-02-15T15:16:06;18.60;89.70
9919;DHT22;4998;51.024;13.828;2024-02-15T15:18:35;18.60;89.80
9919;DHT22;4998;51.024;13.828;2024-02-15T15:21:02;18.60;89.80
9919;DHT22;4998;51.024;13.828;2024-02-15T15:23:29;18.60;89.70
9919;DHT22;4998;51.024;13.828;2024-02-15T15:25:57;18.50;89.50
9919;DHT22;4998;51.024;13.828;2024-02-15T15:28:24;18.50;89.40
9919;DHT22;4998;51.024;13.828;2024-02-15T15:30:52;18.50;89.40
9919;DHT22;4998;51.024;13.828;2024-02-15T15:33:20;18.40;89.60
9919;DHT22;4998;51.024;13.828;2024-02-15T15:35:47;18.40;89.80
9919;DHT22;4998;51.024;13.828;2024-02-15T15:38:15;18.40;89.70
9919;DHT22;4998;51.024;13.828;2024-02-15T15:40:43;18.30;89.50
9919;DHT22;4998;51.024;13.828;2024-02-15T15:43:10;18.30;89.50
9919;DHT22;4998;51.024;13.828;2024-02-15T15:45:39;18.30;89.40
9919;DHT22;4998;51.024;13.828;2024-02-15T15:48:08;18.30;89.30
9919;DHT22;4998;51.024;13.828;2024-02-15T15:50:35;18.30;89.20
9919;DHT22;4998;51.024;13.828;2024-02-15T15:53:02;18.20;89.10
9919;DHT22;4998;51.024;13.828;2024-02-15T15:55:29;18.20;89.00
9919;DHT22;4998;51.024;13.828;2024-02-15T15:57:57;18.10;88.90